Time;durP1;ratioP1;P1;durP2;ratioP2;P2;SDS_P1;SDS_P2;PMS_P1;PMS_P2;Temp;Humidity;BMP_temperature;BMP_pressure;BME280_temperature;BME280_humidity;BME280_pressure;Samples;Min_cycle;Max_cycle;Signal;HPM_P1;HPM_P2
2022/02/01 06:48:21;;;;;;;5.10;2.05;;;;;;;;;;10588035;27;20784;-85
2022/02/01 06:53:23;;;;;;;4.22;1.60;;;;;;;;;;10550656;28;20059;-85
2022/02/01 06:58:24;;;;;;;;;;;;;;;;;;10550567;28;20027;-86
2022/02/01 07:03:25;;;;;;;6.53;2.05;;;;;;;;;;10550168;28;19908;-86
2022/02/01 07:08:26;;;;;;;9.35;2.85;;;;;;;;;;10549525;28;20028;-86
2022/02/01 07:13:27;;;;;;;4.97;1.98;;;;;;;;;;10548730;28;20032;-85
2022/02/01 07:18:28;;;;;;;5.15;2.13;;;;;;;;;;10549552;28;20024;-85
2022/02/01 07:23:29;;;;;;;6.00;2.95;;;;;;;;;;10549177;28;20031;-85
2022/02/01 07:28:32;;;;;;;5.25;2.10;;;;;;;;;;10550340;28;20043;-86
2022/02/01 07:33:33;;;;;;;7.75;2.58;;;;;;;;;;10550758;28;20496;-85
2022/02/01 07:38:34;;;;;;;6.60;2.40;;;;;;;;;;10549725;28;20021;-85
2022/02/01 07:43:35;;;;;;;;;;;;;;;;;;10554533;28;20477;-85
2022/02/01 07:48:36;;;;;;;7.82;2.70;;;;;;;;;;10551326;28;19904;-85
2022/02/01 07:53:37;;;;;;;10.13;2.75;;;;;;;;;;10548973;28;20031;-84
2022/02/01 07:58:38;;;;;;;4.03;1.67;;;;;;;;;;10525670;28;20510;-83
2022/02/01 08:03:39;;;;;;;5.40;2.28;;;;;;;;;;10542794;28;20491;-85
2022/02/01 08:08:41;;;;;;;7.72;2.53;;;;;;;;;;10516029;28;20115;-84
2022/02/01 08:19:26;;;;;;;7.95;3.15;;;;;;;;;;10543476;28;20024;-80
2022/02/01 08:24:27;;;;;;;7.35;3.58;;;;;;;;;;10528545;28;20034;-79
2022/02/01 08:29:28;;;;;;;8.95;3.20;;;;;;;;;;10525207;28;20039;-79
2022/02/01 08:34:29;;;;;;;7.55;3.40;;;;;;;;;;10525689;28;20064;-79
2022/02/01 08:39:30;;;;;;;7.90;3.50;;;;;;;;;;10529070;28;20021;-80
2022/02/01 08:44:31;;;;;;;10.82;4.45;;;;;;;;;;10534276;28;20037;-80
2022/02/01 08:49:32;;;;;;;7.72;3.22;;;;;;;;;;10534128;28;20028;-79
2022/02/01 08:54:36;;;;;;;8.80;3.80;;;;;;;;;;10540955;28;20054;-79
2022/02/01 08:59:37;;;;;;;7.85;3.30;;;;;;;;;;10545312;28;20009;-79
2022/02/01 09:04:38;;;;;;;5.30;2.83;;;;;;;;;;10546790;28;20032;-79
2022/02/01 09:09:39;;;;;;;9.25;3.60;;;;;;;;;;10542387;28;20028;-80
2022/02/01 09:14:41;;;;;;;;;;;;;;;;;;10545588;28;20040;-79
2022/02/01 09:19:42;;;;;;;8.52;3.63;;;;;;;;;;10539707;28;19905;-80
2022/02/01 09:24:44;;;;;;;6.75;4.20;;;;;;;;;;10537661;28;20058;-80
2022/02/01 09:29:45;;;;;;;5.70;3.17;;;;;;;;;;10535770;28;20100;-79
2022/02/01 09:34:46;;;;;;;6.75;3.38;;;;;;;;;;10538950;28;20038;-80
2022/02/01 09:39:47;;;;;;;7.35;4.10;;;;;;;;;;10537285;28;20383;-80
2022/02/01 09:44:52;;;;;;;9.82;4.28;;;;;;;;;;10538822;28;20068;-80
2022/02/01 09:49:52;;;;;;;8.18;3.70;;;;;;;;;;10535018;28;20020;-80
2022/02/01 09:54:54;;;;;;;7.68;4.03;;;;;;;;;;10530316;28;20471;-81
2022/02/01 09:59:57;;;;;;;5.70;3.38;;;;;;;;;;10529361;28;20047;-81
2022/02/01 10:05:05;;;;;;;7.45;4.00;;;;;;;;;;10526093;28;20032;-79
2022/02/01 10:10:07;;;;;;;7.63;4.18;;;;;;;;;;10531162;28;20033;-79
2022/02/01 10:15:15;;;;;;;;;;;;;;;;;;10532846;28;20123;-79
2022/02/01 10:20:17;;;;;;;9.25;6.22;;;;;;;;;;10526019;28;19904;-82
2022/02/01 10:25:24;;;;;;;7.53;5.00;;;;;;;;;;10527286;28;20171;-79
2022/02/01 10:30:36;;;;;;;8.65;5.53;;;;;;;;;;10524217;28;20028;-79
2022/02/01 10:35:55;;;;;;;8.13;5.93;;;;;;;;;;10524082;28;20040;-81
2022/02/01 10:40:56;;;;;;;8.05;6.03;;;;;;;;;;10529065;28;20024;-82
2022/02/01 10:46:07;;;;;;;9.57;6.40;;;;;;;;;;10527453;28;20100;-80
2022/02/01 10:51:09;;;;;;;9.03;6.80;;;;;;;;;;10527401;28;20033;-80
2022/02/01 10:56:16;;;;;;;9.27;5.47;;;;;;;;;;10527299;28;20275;-80
2022/02/01 11:01:19;;;;;;;6.32;4.80;;;;;;;;;;10525152;28;20021;-80
2022/02/01 11:06:20;;;;;;;7.28;5.07;;;;;;;;;;10525320;28;20170;-80
2022/02/01 11:11:21;;;;;;;;;;;;;;;;;;10526678;28;20163;-79
2022/02/01 11:16:27;;;;;;;7.05;5.75;;;;;;;;;;10519651;28;19968;-79
2022/02/01 11:21:29;;;;;;;5.28;4.22;;;;;;;;;;10522013;28;20055;-80
2022/02/01 11:26:36;;;;;;;8.32;6.45;;;;;;;;;;10525206;28;20075;-79
2022/02/01 11:31:47;;;;;;;6.88;4.20;;;;;;;;;;10529263;28;20028;-80
2022/02/01 11:36:55;;;;;;;5.18;3.75;;;;;;;;;;10539032;28;20039;-80
2022/02/01 11:41:57;;;;;;;6.70;4.07;;;;;;;;;;10536984;28;20024;-81
2022/02/01 11:47:06;;;;;;;7.70;5.13;;;;;;;;;;10539098;28;20040;-82
2022/02/01 11:52:09;;;;;;;5.22;4.40;;;;;;;;;;10538613;28;20029;-81
2022/02/01 11:57:15;;;;;;;5.13;4.00;;;;;;;;;;10543346;28;20020;-82
2022/02/01 12:02:25;;;;;;;6.13;3.85;;;;;;;;;;10542650;28;20055;-83
2022/02/01 12:07:26;;;;;;;4.13;3.00;;;;;;;;;;10537054;28;20111;-83
2022/02/01 12:12:27;;;;;;;3.92;2.97;;;;;;;;;;10534173;28;20067;-83
2022/02/01 12:17:28;;;;;;;5.70;4.18;;;;;;;;;;10544986;28;20096;-81
2022/02/01 12:22:32;;;;;;;5.50;2.92;;;;;;;;;;10537205;28;20032;-82
2022/02/01 12:27:37;;;;;;;4.22;3.00;;;;;;;;;;10534877;28;20062;-82
2022/02/01 12:32:48;;;;;;;5.78;3.92;;;;;;;;;;10532066;28;20077;-83
2022/02/01 12:37:49;;;;;;;4.20;3.05;;;;;;;;;;10537266;28;20035;-82
2022/02/01 12:42:52;;;;;;;3.30;2.45;;;;;;;;;;10534127;28;20068;-83
2022/02/01 12:48:00;;;;;;;6.47;4.60;;;;;;;;;;10527369;28;20037;-83
2022/02/01 12:53:04;;;;;;;4.05;2.80;;;;;;;;;;10528139;28;20082;-83
2022/02/01 12:58:06;;;;;;;6.15;4.03;;;;;;;;;;10527226;28;20126;-82
2022/02/01 13:03:07;;;;;;;3.42;2.47;;;;;;;;;;10528505;28;20096;-83
2022/02/01 13:14:24;;;;;;;5.40;2.67;;;;;;;;;;10545491;28;20486;-83
2022/02/01 13:24:06;;;;;;;3.90;2.40;;;;;;;;;;10526815;28;20029;-83
2022/02/01 13:29:14;;;;;;;5.13;3.08;;;;;;;;;;10526629;28;20398;-83
2022/02/01 13:34:15;;;;;;;2.72;2.15;;;;;;;;;;10526136;28;20033;-83
2022/02/01 13:39:30;;;;;;;3.97;2.10;;;;;;;;;;10524325;28;20088;-83
2022/02/01 13:44:31;;;;;;;3.53;1.83;;;;;;;;;;10524285;28;20052;-82
2022/02/01 13:49:33;;;;;;;3.60;2.20;;;;;;;;;;10519319;28;20478;-82
2022/02/01 13:54:41;;;;;;;2.97;1.80;;;;;;;;;;10520316;28;20531;-84
2022/02/01 13:59:43;;;;;;;3.20;2.10;;;;;;;;;;10521244;28;20035;-83
2022/02/01 14:04:55;;;;;;;3.33;2.40;;;;;;;;;;10520397;28;20024;-84
2022/02/01 14:10:24;;;;;;;4.75;2.95;;;;;;;;;;10521798;28;20031;-84
2022/02/01 14:36:42;;;;;;;2.88;2.38;;;;;;;;;;10520295;28;20025;-85
2022/02/01 14:47:03;;;;;;;4.32;3.00;;;;;;;;;;10519746;28;20044;-84
2022/02/01 14:52:05;;;;;;;5.35;3.38;;;;;;;;;;10516288;28;20031;-83
2022/02/01 15:11:21;;;;;;;3.42;2.50;;;;;;;;;;10521601;28;20041;-84
2022/02/01 15:13:13;;;;;;;3.55;2.17;;;;;;;;;;10522821;28;20024;-83
2022/02/01 15:18:14;;;;;;;4.22;2.80;;;;;;;;;;10524192;28;20020;-84
2022/02/01 15:23:15;;;;;;;3.63;2.38;;;;;;;;;;10522454;28;20028;-84
2022/02/01 15:28:17;;;;;;;5.00;3.25;;;;;;;;;;10522637;28;20131;-83
2022/02/01 15:33:17;;;;;;;6.13;3.13;;;;;;;;;;10518978;28;20040;-83
2022/02/01 15:38:27;;;;;;;3.38;2.80;;;;;;;;;;10519442;28;20105;-83
2022/02/01 15:59:31;;;;;;;6.75;3.20;;;;;;;;;;10530922;28;20025;-82
2022/02/01 16:04:32;;;;;;;4.55;2.08;;;;;;;;;;10531912;28;20115;-84
2022/02/01 16:14:37;;;;;;;5.05;2.70;;;;;;;;;;10536962;28;20033;-81
2022/02/01 16:19:38;;;;;;;5.50;2.47;;;;;;;;;;10546492;28;20048;-80
2022/02/01 16:24:40;;;;;;;5.35;2.05;;;;;;;;;;10603910;22;20040;-82
2022/02/01 16:29:41;;;;;;;6.15;2.60;;;;;;;;;;10575484;28;20100;-82
2022/02/01 16:34:42;;;;;;;;;;;;;;;;;;10575967;28;20090;-82
2022/02/01 16:39:45;;;;;;;5.38;2.13;;;;;;;;;;10575090;28;20020;-82
2022/02/01 16:44:47;;;;;;;6.93;2.40;;;;;;;;;;10575351;28;20055;-82
2022/02/01 16:49:48;;;;;;;12.40;6.20;;;;;;;;;;10573357;28;20035;-82
2022/02/01 16:55:01;;;;;;;4.30;1.95;;;;;;;;;;10576078;28;20032;-82
2022/02/01 17:00:02;;;;;;;8.23;2.70;;;;;;;;;;10575086;28;20099;-82
2022/02/01 17:05:03;;;;;;;;;;;;;;;;;;10574811;28;20032;-82
2022/02/01 17:10:05;;;;;;;6.13;2.50;;;;;;;;;;10575074;28;19930;-82
2022/02/01 17:15:30;;;;;;;5.93;2.35;;;;;;;;;;10570036;28;20120;-83
2022/02/01 17:25:47;;;;;;;6.65;2.40;;;;;;;;;;10557795;28;19912;-87
2022/02/01 17:30:47;;;;;;;;;;;;;;;;;;10563408;28;20069;-87
2022/02/01 17:35:49;;;;;;;9.65;2.80;;;;;;;;;;10559455;28;19908;-86
2022/02/01 17:41:07;;;;;;;8.63;2.70;;;;;;;;;;10560336;28;20028;-86
2022/02/01 17:46:08;;;;;;;7.93;2.20;;;;;;;;;;10560647;28;20402;-87
2022/02/01 17:51:14;;;;;;;8.98;2.70;;;;;;;;;;10548013;28;20063;-86
2022/02/01 17:56:16;;;;;;;10.20;2.70;;;;;;;;;;10544161;28;20024;-87
2022/02/01 18:01:17;;;;;;;7.85;2.25;;;;;;;;;;10543453;28;20020;-86
2022/02/01 18:06:19;;;;;;;;;;;;;;;;;;10545394;28;20027;-86
2022/02/01 18:11:23;;;;;;;7.13;2.17;;;;;;;;;;10546034;28;20376;-86
2022/02/01 18:16:25;;;;;;;10.43;3.00;;;;;;;;;;10576999;28;20042;-87
2022/02/01 18:21:30;;;;;;;8.25;2.95;;;;;;;;;;10541787;28;20020;-86
2022/02/01 18:26:31;;;;;;;4.57;1.63;;;;;;;;;;10541854;28;20351;-87
2022/02/01 18:31:32;;;;;;;;;;;;;;;;;;10544463;28;20028;-87
2022/02/01 18:36:45;;;;;;;10.13;3.13;;;;;;;;;;10542394;28;19918;-87
2022/02/01 18:41:47;;;;;;;7.35;2.13;;;;;;;;;;10543572;28;20781;-86
2022/02/01 18:46:54;;;;;;;12.80;2.75;;;;;;;;;;10542904;28;20039;-86
2022/02/01 18:52:08;;;;;;;10.70;2.80;;;;;;;;;;10542683;28;20170;-86
2022/02/01 18:57:25;;;;;;;9.00;2.42;;;;;;;;;;10540847;28;20095;-86
2022/02/01 19:08:16;;;;;;;13.23;3.13;;;;;;;;;;10541710;28;20398;-86
2022/02/01 19:13:17;;;;;;;8.88;2.22;;;;;;;;;;10539420;28;20371;-85
2022/02/01 19:18:19;;;;;;;11.48;2.80;;;;;;;;;;10541827;28;20039;-85
2022/02/01 19:23:21;;;;;;;10.10;2.35;;;;;;;;;;10539827;28;20058;-86
2022/02/01 19:28:32;;;;;;;8.48;2.10;;;;;;;;;;10540306;28;20028;-86
2022/02/01 19:33:37;;;;;;;10.18;2.47;;;;;;;;;;10539407;28;20039;-86
2022/02/01 19:38:40;;;;;;;11.38;2.95;;;;;;;;;;10538779;28;20024;-86
2022/02/01 19:43:51;;;;;;;37.50;20.45;;;;;;;;;;10538900;28;20062;-84
2022/02/01 19:48:57;;;;;;;11.88;3.10;;;;;;;;;;10538524;28;20034;-85
2022/02/01 19:53:59;;;;;;;10.52;3.15;;;;;;;;;;10542449;28;20028;-85
2022/02/01 19:59:01;;;;;;;11.00;2.72;;;;;;;;;;10548143;28;20430;-85
2022/02/01 20:04:02;;;;;;;15.55;3.30;;;;;;;;;;10546977;28;20394;-86
2022/02/01 20:09:09;;;;;;;10.75;2.70;;;;;;;;;;10545990;28;20548;-86
2022/02/01 20:14:10;;;;;;;11.68;3.00;;;;;;;;;;10546451;28;20027;-86
2022/02/01 20:19:11;;;;;;;12.82;2.65;;;;;;;;;;10547508;28;20473;-86
2022/02/01 20:24:18;;;;;;;;;;;;;;;;;;10580689;28;20048;-86
2022/02/01 20:29:20;;;;;;;9.68;2.72;;;;;;;;;;10545214;28;19908;-86
2022/02/01 20:34:21;;;;;;;10.70;2.97;;;;;;;;;;10545301;28;20032;-86
2022/02/01 20:39:25;;;;;;;12.93;3.25;;;;;;;;;;10546445;28;20452;-85
2022/02/01 20:44:26;;;;;;;10.80;3.10;;;;;;;;;;10544446;28;20478;-85
2022/02/01 20:49:28;;;;;;;11.90;3.00;;;;;;;;;;10556690;28;20123;-86
2022/02/01 20:54:30;;;;;;;6.97;2.35;;;;;;;;;;10539379;28;20024;-86
2022/02/01 20:59:31;;;;;;;15.15;3.75;;;;;;;;;;10554750;28;20428;-85
2022/02/01 21:04:32;;;;;;;16.10;3.47;;;;;;;;;;10556222;28;20130;-86
2022/02/01 21:09:36;;;;;;;12.98;3.30;;;;;;;;;;10556820;28;20427;-87
